Saturday, November 18, 2017, 4:29 PM EST
Back to Local

KILG, Wilmington New Castle Co

Location: New Castle, DE, United States Lat: 39.667
Local Time: 4:29 PM EST (21:29 GMT) Lon: -75.6
Time Zone: US/Eastern Elev: 78 ft

Show me the last for .
Show Coded

Time T Td Feel RH Dir Speed Gust Alt SLP Vis Weather Sky Remarks
2017-11-18 15:51 56 39 - 52 190° 12 - 29.65 29.65 10 BKN095 OVC120 None
2017-11-18 14:51 53 43 - 68 160° 10 - 29.68 29.67 10 OVC090 None
2017-11-18 13:51 52 41 - 66 160° 12 - 29.72 29.72 10 SCT080 OVC090 None
2017-11-18 12:51 52 40 - 63 160° 13 - 29.75 29.75 10 SCT080 OVC095 1-hr Precip Total: Trace
6-hr Precip Total (1pm): 0.00"
6-hr Min Temp (1pm): 37.0°F
6-hr Max Temp (1pm): 52.0°F
2017-11-18 11:51 50 39 46 65 160° 10 - 29.81 29.81 10 -RA FEW080 OVC100 Pressure falling rapidly
1-hr Precip Total: Trace
2017-11-18 10:51 50 38 45 63 170° 13 - 29.87 29.86 10 OVC100 None
2017-11-18 09:51 46 38 41 73 180° 9 - 29.91 29.91 10 CLR None
2017-11-18 08:51 44 36 38 72 170° 13 - 29.93 29.93 10 CLR None
2017-11-18 07:51 41 35 33 79 170° 14 - 29.95 29.95 10 CLR None
2017-11-18 06:51 37 31 31 78 190° 8 - 29.97 29.97 10 CLR 6-hr Min Temp (7am): 28.9°F
6-hr Max Temp (7am): 37.0°F
2017-11-18 05:51 32 29 - 88 - Calm - 30.00 30.00 10 CLR None
2017-11-18 04:51 29 27 - 92 - Calm - 30.01 30.01 10 CLR None
2017-11-18 03:51 32 26 - 78 - Calm - 30.02 30.02 10 CLR None
2017-11-18 02:51 32 27 29 81 210° 3 - 30.04 30.04 10 CLR None
2017-11-18 01:51 33 29 - 84 - Calm - 30.05 30.05 10 CLR None
2017-11-18 00:51 34 28 - 78 - Calm - 30.07 30.07 10 CLR 6-hr Min Temp (1am): 32.0°F
6-hr Max Temp (1am): 42.1°F
2017-11-17 23:51 33 27 - 77 - Calm - 30.09 30.09 10 CLR 24-hr Min Temp (12am): 32.0°F
24-hr Max Temp (12am): 51.1°F
2017-11-17 22:51 36 27 33 69 160° 3 - 30.12 30.12 10 CLR None
2017-11-17 21:51 38 26 - 61 - Calm - 30.12 30.12 10 CLR None
2017-11-17 20:51 38 27 36 64 310° 3 - 30.13 30.12 10 CLR None
2017-11-17 19:51 40 26 38 57 260° 3 - 30.13 30.13 10 CLR None
2017-11-17 18:51 41 26 37 54 250° 6 - 30.14 30.14 10 CLR 6-hr Min Temp (7pm): 41.0°F
6-hr Max Temp (7pm): 51.1°F
2017-11-17 17:51 43 27 40 52 280° 5 - 30.14 30.14 10 CLR None
2017-11-17 16:51 45 26 40 47 310° 9 - 30.14 30.14 10 CLR None

Support USWX by starting your Amazon purchase here.